sensor_id;sensor_type;location;lat;lon;timestamp;temperature;humidity
14378;DHT22;7272;53.668;9.578;2023-05-19T00:02:23;8.10;99.90
14378;DHT22;7272;53.668;9.578;2023-05-19T00:05:25;8.10;99.90
14378;DHT22;7272;53.668;9.578;2023-05-19T00:08:30;8.00;99.90
14378;DHT22;7272;53.668;9.578;2023-05-19T00:11:31;8.00;99.90
14378;DHT22;7272;53.668;9.578;2023-05-19T00:14:33;7.90;99.90
14378;DHT22;7272;53.668;9.578;2023-05-19T00:17:35;7.90;99.90
14378;DHT22;7272;53.668;9.578;2023-05-19T00:20:37;7.80;99.90
14378;DHT22;7272;53.668;9.578;2023-05-19T00:23:39;7.80;99.90
14378;DHT22;7272;53.668;9.578;2023-05-19T00:26:40;7.70;99.90
14378;DHT22;7272;53.668;9.578;2023-05-19T00:29:41;7.70;99.90
14378;DHT22;7272;53.668;9.578;2023-05-19T00:32:43;7.70;99.90
14378;DHT22;7272;53.668;9.578;2023-05-19T00:35:44;7.70;99.90
14378;DHT22;7272;53.668;9.578;2023-05-19T00:38:45;7.70;99.90
14378;DHT22;7272;53.668;9.578;2023-05-19T00:41:47;7.70;99.90
14378;DHT22;7272;53.668;9.578;2023-05-19T00:44:48;7.70;99.90
14378;DHT22;7272;53.668;9.578;2023-05-19T00:47:50;7.70;99.90
14378;DHT22;7272;53.668;9.578;2023-05-19T00:50:52;7.70;99.90
14378;DHT22;7272;53.668;9.578;2023-05-19T00:53:55;7.60;99.90
14378;DHT22;7272;53.668;9.578;2023-05-19T00:56:56;7.50;99.90
14378;DHT22;7272;53.668;9.578;2023-05-19T00:59:58;7.50;99.90
14378;DHT22;7272;53.668;9.578;2023-05-19T01:03:01;7.40;99.90
14378;DHT22;7272;53.668;9.578;2023-05-19T01:06:03;7.50;99.90
14378;DHT22;7272;53.668;9.578;2023-05-19T01:09:04;7.50;99.90
14378;DHT22;7272;53.668;9.578;2023-05-19T01:12:06;7.50;99.90
14378;DHT22;7272;53.668;9.578;2023-05-19T01:15:08;7.60;99.90
14378;DHT22;7272;53.668;9.578;2023-05-19T01:18:13;7.70;99.90
14378;DHT22;7272;53.668;9.578;2023-05-19T01:21:47;7.60;99.90
14378;DHT22;7272;53.668;9.578;2023-05-19T01:25:19;7.60;99.90
14378;DHT22;7272;53.668;9.578;2023-05-19T01:28:49;7.50;99.90
14378;DHT22;7272;53.668;9.578;2023-05-19T01:31:54;7.50;99.90
14378;DHT22;7272;53.668;9.578;2023-05-19T01:35:00;7.40;99.90
14378;DHT22;7272;53.668;9.578;2023-05-19T01:38:04;7.40;99.90
14378;DHT22;7272;53.668;9.578;2023-05-19T01:41:08;7.30;99.90
14378;DHT22;7272;53.668;9.578;2023-05-19T01:44:11;7.30;99.90
14378;DHT22;7272;53.668;9.578;2023-05-19T01:47:13;7.30;99.90
14378;DHT22;7272;53.668;9.578;2023-05-19T01:50:16;7.20;99.90
14378;DHT22;7272;53.668;9.578;2023-05-19T01:53:17;7.20;99.90
14378;DHT22;7272;53.668;9.578;2023-05-19T01:56:25;7.20;99.90
14378;DHT22;7272;53.668;9.578;2023-05-19T01:59:36;7.20;99.90
14378;DHT22;7272;53.668;9.578;2023-05-19T02:02:48;7.20;99.90
14378;DHT22;7272;53.668;9.578;2023-05-19T02:05:58;7.20;99.90
14378;DHT22;7272;53.668;9.578;2023-05-19T02:09:06;7.20;99.90
14378;DHT22;7272;53.668;9.578;2023-05-19T02:12:14;7.20;99.90
14378;DHT22;7272;53.668;9.578;2023-05-19T02:15:22;7.20;99.90
14378;DHT22;7272;53.668;9.578;2023-05-19T02:18:25;7.20;99.90
14378;DHT22;7272;53.668;9.578;2023-05-19T02:21:29;7.20;99.90
14378;DHT22;7272;53.668;9.578;2023-05-19T02:24:30;7.20;99.90
14378;DHT22;7272;53.668;9.578;2023-05-19T02:27:33;7.20;99.90
14378;DHT22;7272;53.668;9.578;2023-05-19T02:30:36;7.30;99.90
14378;DHT22;7272;53.668;9.578;2023-05-19T02:33:38;7.30;99.90
14378;DHT22;7272;53.668;9.578;2023-05-19T02:36:40;7.30;99.90
14378;DHT22;7272;53.668;9.578;2023-05-19T02:39:42;7.30;99.90
14378;DHT22;7272;53.668;9.578;2023-05-19T02:42:44;7.20;99.90
14378;DHT22;7272;53.668;9.578;2023-05-19T02:45:45;7.30;99.90
14378;DHT22;7272;53.668;9.578;2023-05-19T02:48:47;7.20;99.90
14378;DHT22;7272;53.668;9.578;2023-05-19T02:51:48;7.20;99.90
14378;DHT22;7272;53.668;9.578;2023-05-19T02:54:49;7.20;99.90
14378;DHT22;7272;53.668;9.578;2023-05-19T02:57:51;7.20;99.90
14378;DHT22;7272;53.668;9.578;2023-05-19T03:00:52;7.20;99.90
14378;DHT22;7272;53.668;9.578;2023-05-19T03:03:54;7.20;99.90
14378;DHT22;7272;53.668;9.578;2023-05-19T03:06:55;7.20;99.90
14378;DHT22;7272;53.668;9.578;2023-05-19T03:09:57;7.40;99.90
14378;DHT22;7272;53.668;9.578;2023-05-19T03:12:58;7.50;99.90
14378;DHT22;7272;53.668;9.578;2023-05-19T03:15:59;7.50;99.90
14378;DHT22;7272;53.668;9.578;2023-05-19T03:19:02;7.40;99.90
14378;DHT22;7272;53.668;9.578;2023-05-19T03:22:03;7.40;99.90
14378;DHT22;7272;53.668;9.578;2023-05-19T03:25:05;7.40;99.90
14378;DHT22;7272;53.668;9.578;2023-05-19T03:28:07;7.30;99.90
14378;DHT22;7272;53.668;9.578;2023-05-19T03:31:08;7.20;99.90
14378;DHT22;7272;53.668;9.578;2023-05-19T03:34:13;7.20;99.90
14378;DHT22;7272;53.668;9.578;2023-05-19T03:37:14;7.20;99.90
14378;DHT22;7272;53.668;9.578;2023-05-19T03:40:15;7.20;99.90
14378;DHT22;7272;53.668;9.578;2023-05-19T03:43:18;7.20;99.90
14378;DHT22;7272;53.668;9.578;2023-05-19T03:46:26;7.10;99.90
14378;DHT22;7272;53.668;9.578;2023-05-19T03:49:48;7.10;99.90
14378;DHT22;7272;53.668;9.578;2023-05-19T03:53:07;7.10;99.90
14378;DHT22;7272;53.668;9.578;2023-05-19T03:56:14;7.30;99.90
14378;DHT22;7272;53.668;9.578;2023-05-19T03:59:17;7.40;99.90
14378;DHT22;7272;53.668;9.578;2023-05-19T04:02:18;7.40;99.90
14378;DHT22;7272;53.668;9.578;2023-05-19T04:05:22;7.30;99.90
14378;DHT22;7272;53.668;9.578;2023-05-19T04:08:23;7.30;99.90
14378;DHT22;7272;53.668;9.578;2023-05-19T04:11:25;7.40;99.90
14378;DHT22;7272;53.668;9.578;2023-05-19T04:14:26;7.40;99.90
14378;DHT22;7272;53.668;9.578;2023-05-19T04:17:27;7.40;99.90
14378;DHT22;7272;53.668;9.578;2023-05-19T04:20:29;7.40;99.90
14378;DHT22;7272;53.668;9.578;2023-05-19T04:23:30;7.50;99.90
14378;DHT22;7272;53.668;9.578;2023-05-19T04:26:32;7.50;99.90
14378;DHT22;7272;53.668;9.578;2023-05-19T04:29:34;7.60;99.90
14378;DHT22;7272;53.668;9.578;2023-05-19T04:32:35;7.70;99.90
14378;DHT22;7272;53.668;9.578;2023-05-19T04:35:38;7.80;99.90
14378;DHT22;7272;53.668;9.578;2023-05-19T04:38:40;8.00;99.90
14378;DHT22;7272;53.668;9.578;2023-05-19T04:41:43;8.10;99.90
14378;DHT22;7272;53.668;9.578;2023-05-19T04:44:45;8.10;99.90
14378;DHT22;7272;53.668;9.578;2023-05-19T04:47:48;8.20;99.90
14378;DHT22;7272;53.668;9.578;2023-05-19T04:50:50;8.30;99.90
14378;DHT22;7272;53.668;9.578;2023-05-19T04:53:53;8.30;99.90
14378;DHT22;7272;53.668;9.578;2023-05-19T04:56:54;8.30;99.90
14378;DHT22;7272;53.668;9.578;2023-05-19T04:59:56;8.30;99.90
14378;DHT22;7272;53.668;9.578;2023-05-19T05:03:00;8.40;99.90
14378;DHT22;7272;53.668;9.578;2023-05-19T05:06:07;8.50;99.90
14378;DHT22;7272;53.668;9.578;2023-05-19T05:09:08;8.50;99.90
14378;DHT22;7272;53.668;9.578;2023-05-19T05:12:12;8.60;99.90
14378;DHT22;7272;53.668;9.578;2023-05-19T05:15:15;8.70;99.90
14378;DHT22;7272;53.668;9.578;2023-05-19T05:18:18;8.80;99.90
14378;DHT22;7272;53.668;9.578;2023-05-19T05:21:21;8.90;99.90
14378;DHT22;7272;53.668;9.578;2023-05-19T05:24:25;9.10;99.90
14378;DHT22;7272;53.668;9.578;2023-05-19T05:27:30;9.20;99.90
14378;DHT22;7272;53.668;9.578;2023-05-19T05:30:33;9.30;99.90
14378;DHT22;7272;53.668;9.578;2023-05-19T05:33:34;9.40;99.90
14378;DHT22;7272;53.668;9.578;2023-05-19T05:36:36;9.50;99.90
14378;DHT22;7272;53.668;9.578;2023-05-19T05:39:38;9.70;99.90
14378;DHT22;7272;53.668;9.578;2023-05-19T05:42:39;9.70;99.90
14378;DHT22;7272;53.668;9.578;2023-05-19T05:45:40;9.80;99.90
14378;DHT22;7272;53.668;9.578;2023-05-19T05:48:42;9.90;99.90
14378;DHT22;7272;53.668;9.578;2023-05-19T05:51:45;10.00;99.90
14378;DHT22;7272;53.668;9.578;2023-05-19T05:54:47;10.10;99.90
14378;DHT22;7272;53.668;9.578;2023-05-19T05:57:51;10.20;99.90
14378;DHT22;7272;53.668;9.578;2023-05-19T06:00:52;10.30;99.90
14378;DHT22;7272;53.668;9.578;2023-05-19T06:03:57;10.30;99.90
14378;DHT22;7272;53.668;9.578;2023-05-19T06:06:59;10.40;99.90
14378;DHT22;7272;53.668;9.578;2023-05-19T06:10:05;10.50;99.90
14378;DHT22;7272;53.668;9.578;2023-05-19T06:13:06;10.70;99.90
14378;DHT22;7272;53.668;9.578;2023-05-19T06:16:09;10.90;99.90
14378;DHT22;7272;53.668;9.578;2023-05-19T06:19:15;11.10;99.90
14378;DHT22;7272;53.668;9.578;2023-05-19T06:22:17;11.10;99.90
14378;DHT22;7272;53.668;9.578;2023-05-19T06:25:18;11.20;99.90
14378;DHT22;7272;53.668;9.578;2023-05-19T06:28:20;11.40;99.90
14378;DHT22;7272;53.668;9.578;2023-05-19T06:31:21;11.50;99.90
14378;DHT22;7272;53.668;9.578;2023-05-19T06:34:26;11.70;99.90
14378;DHT22;7272;53.668;9.578;2023-05-19T06:37:28;11.80;99.90
14378;DHT22;7272;53.668;9.578;2023-05-19T06:40:30;11.80;99.90
14378;DHT22;7272;53.668;9.578;2023-05-19T06:43:31;11.90;99.90
14378;DHT22;7272;53.668;9.578;2023-05-19T06:46:36;12.00;99.90
14378;DHT22;7272;53.668;9.578;2023-05-19T06:49:38;12.00;99.90
14378;DHT22;7272;53.668;9.578;2023-05-19T06:52:41;12.10;99.90
14378;DHT22;7272;53.668;9.578;2023-05-19T06:55:43;12.10;99.90
14378;DHT22;7272;53.668;9.578;2023-05-19T06:58:45;12.30;99.90
14378;DHT22;7272;53.668;9.578;2023-05-19T07:01:46;12.40;99.90
14378;DHT22;7272;53.668;9.578;2023-05-19T07:04:48;12.60;99.90
14378;DHT22;7272;53.668;9.578;2023-05-19T07:07:51;12.80;99.90
14378;DHT22;7272;53.668;9.578;2023-05-19T07:10:57;13.00;99.90
14378;DHT22;7272;53.668;9.578;2023-05-19T07:13:58;13.20;99.90
14378;DHT22;7272;53.668;9.578;2023-05-19T07:17:02;13.40;99.90
14378;DHT22;7272;53.668;9.578;2023-05-19T07:20:04;13.50;99.90
14378;DHT22;7272;53.668;9.578;2023-05-19T07:23:07;13.70;99.90
14378;DHT22;7272;53.668;9.578;2023-05-19T07:26:09;14.00;99.90
14378;DHT22;7272;53.668;9.578;2023-05-19T07:29:10;14.10;99.90
14378;DHT22;7272;53.668;9.578;2023-05-19T07:32:12;14.30;99.90
14378;DHT22;7272;53.668;9.578;2023-05-19T07:35:13;14.50;99.90
14378;DHT22;7272;53.668;9.578;2023-05-19T07:38:15;14.70;99.90
14378;DHT22;7272;53.668;9.578;2023-05-19T07:41:16;14.70;99.90
14378;DHT22;7272;53.668;9.578;2023-05-19T07:44:17;14.90;99.90
14378;DHT22;7272;53.668;9.578;2023-05-19T07:47:18;15.10;99.90
14378;DHT22;7272;53.668;9.578;2023-05-19T07:50:19;15.40;99.90
14378;DHT22;7272;53.668;9.578;2023-05-19T07:53:21;15.40;99.90
14378;DHT22;7272;53.668;9.578;2023-05-19T07:56:22;15.20;99.90
14378;DHT22;7272;53.668;9.578;2023-05-19T07:59:24;15.10;99.90
14378;DHT22;7272;53.668;9.578;2023-05-19T08:02:25;15.00;99.90
14378;DHT22;7272;53.668;9.578;2023-05-19T08:05:27;14.90;99.90
14378;DHT22;7272;53.668;9.578;2023-05-19T08:08:30;15.00;99.90
14378;DHT22;7272;53.668;9.578;2023-05-19T08:11:32;15.10;99.90
14378;DHT22;7272;53.668;9.578;2023-05-19T08:14:33;15.20;99.90
14378;DHT22;7272;53.668;9.578;2023-05-19T08:17:35;15.30;99.90
14378;DHT22;7272;53.668;9.578;2023-05-19T08:20:36;15.50;99.90
14378;DHT22;7272;53.668;9.578;2023-05-19T08:23:38;15.60;99.90
14378;DHT22;7272;53.668;9.578;2023-05-19T08:26:39;15.70;99.90
14378;DHT22;7272;53.668;9.578;2023-05-19T08:29:40;16.00;99.90
14378;DHT22;7272;53.668;9.578;2023-05-19T08:32:41;16.20;99.90
14378;DHT22;7272;53.668;9.578;2023-05-19T08:35:43;16.40;99.90
14378;DHT22;7272;53.668;9.578;2023-05-19T08:38:44;16.60;99.90
14378;DHT22;7272;53.668;9.578;2023-05-19T08:41:46;17.00;99.90
14378;DHT22;7272;53.668;9.578;2023-05-19T08:44:47;17.50;99.90
14378;DHT22;7272;53.668;9.578;2023-05-19T08:47:50;18.10;99.90
14378;DHT22;7272;53.668;9.578;2023-05-19T08:50:56;18.30;99.90
14378;DHT22;7272;53.668;9.578;2023-05-19T08:54:03;18.50;99.90
14378;DHT22;7272;53.668;9.578;2023-05-19T08:57:07;19.00;99.90
14378;DHT22;7272;53.668;9.578;2023-05-19T09:00:10;18.90;99.90
14378;DHT22;7272;53.668;9.578;2023-05-19T09:03:12;19.10;99.90
14378;DHT22;7272;53.668;9.578;2023-05-19T09:06:15;19.20;99.90
14378;DHT22;7272;53.668;9.578;2023-05-19T09:09:17;19.30;99.90
14378;DHT22;7272;53.668;9.578;2023-05-19T09:12:18;19.20;99.90
14378;DHT22;7272;53.668;9.578;2023-05-19T09:15:21;19.00;99.90
14378;DHT22;7272;53.668;9.578;2023-05-19T09:18:26;19.00;99.90
14378;DHT22;7272;53.668;9.578;2023-05-19T09:21:27;18.80;99.90
14378;DHT22;7272;53.668;9.578;2023-05-19T09:24:33;18.90;99.90
14378;DHT22;7272;53.668;9.578;2023-05-19T09:27:34;19.20;99.90
14378;DHT22;7272;53.668;9.578;2023-05-19T09:30:35;19.50;99.90
14378;DHT22;7272;53.668;9.578;2023-05-19T09:33:38;19.50;99.90
14378;DHT22;7272;53.668;9.578;2023-05-19T09:36:39;19.60;99.90
14378;DHT22;7272;53.668;9.578;2023-05-19T09:39:43;19.90;99.90
14378;DHT22;7272;53.668;9.578;2023-05-19T09:42:48;20.20;99.90
14378;DHT22;7272;53.668;9.578;2023-05-19T09:45:58;20.10;99.90
14378;DHT22;7272;53.668;9.578;2023-05-19T09:48:59;19.90;99.90
14378;DHT22;7272;53.668;9.578;2023-05-19T09:52:02;19.40;99.90
14378;DHT22;7272;53.668;9.578;2023-05-19T09:55:07;19.20;99.90
14378;DHT22;7272;53.668;9.578;2023-05-19T09:58:09;19.40;99.90
14378;DHT22;7272;53.668;9.578;2023-05-19T10:01:10;19.70;99.90
14378;DHT22;7272;53.668;9.578;2023-05-19T10:04:13;20.30;99.90
14378;DHT22;7272;53.668;9.578;2023-05-19T10:07:16;20.80;99.90
14378;DHT22;7272;53.668;9.578;2023-05-19T10:10:20;21.30;99.90
14378;DHT22;7272;53.668;9.578;2023-05-19T10:13:23;21.60;99.90
14378;DHT22;7272;53.668;9.578;2023-05-19T10:16:25;21.30;99.90
14378;DHT22;7272;53.668;9.578;2023-05-19T10:19:27;21.00;99.90
14378;DHT22;7272;53.668;9.578;2023-05-19T10:22:29;21.40;99.90
14378;DHT22;7272;53.668;9.578;2023-05-19T10:25:31;21.40;99.90
14378;DHT22;7272;53.668;9.578;2023-05-19T10:28:35;21.20;99.90
14378;DHT22;7272;53.668;9.578;2023-05-19T10:31:38;21.20;99.90
14378;DHT22;7272;53.668;9.578;2023-05-19T10:38:20;21.90;99.90
14378;DHT22;7272;53.668;9.578;2023-05-19T10:41:33;21.90;99.90
14378;DHT22;7272;53.668;9.578;2023-05-19T10:44:49;21.70;99.90
14378;DHT22;7272;53.668;9.578;2023-05-19T10:47:53;21.20;99.90
14378;DHT22;7272;53.668;9.578;2023-05-19T10:50:55;21.30;99.90
14378;DHT22;7272;53.668;9.578;2023-05-19T10:53:56;21.30;99.90
14378;DHT22;7272;53.668;9.578;2023-05-19T10:57:00;21.40;99.90
14378;DHT22;7272;53.668;9.578;2023-05-19T11:00:03;21.40;99.90
14378;DHT22;7272;53.668;9.578;2023-05-19T11:03:13;21.20;99.90
14378;DHT22;7272;53.668;9.578;2023-05-19T11:06:26;21.50;99.90
14378;DHT22;7272;53.668;9.578;2023-05-19T11:09:27;21.90;99.90
14378;DHT22;7272;53.668;9.578;2023-05-19T11:12:39;21.80;99.90
14378;DHT22;7272;53.668;9.578;2023-05-19T11:15:41;21.50;99.90
14378;DHT22;7272;53.668;9.578;2023-05-19T11:18:47;21.10;99.90
14378;DHT22;7272;53.668;9.578;2023-05-19T11:21:49;20.60;99.90
14378;DHT22;7272;53.668;9.578;2023-05-19T11:24:54;21.00;99.90
14378;DHT22;7272;53.668;9.578;2023-05-19T11:27:56;21.10;99.90
14378;DHT22;7272;53.668;9.578;2023-05-19T11:30:57;20.80;99.90
14378;DHT22;7272;53.668;9.578;2023-05-19T11:33:59;20.80;99.90
14378;DHT22;7272;53.668;9.578;2023-05-19T11:37:01;21.20;99.90
14378;DHT22;7272;53.668;9.578;2023-05-19T11:40:02;21.60;99.90
14378;DHT22;7272;53.668;9.578;2023-05-19T11:43:05;22.10;99.90
14378;DHT22;7272;53.668;9.578;2023-05-19T11:46:08;22.30;99.90
14378;DHT22;7272;53.668;9.578;2023-05-19T11:49:09;21.80;99.90
14378;DHT22;7272;53.668;9.578;2023-05-19T11:52:11;21.90;99.90
14378;DHT22;7272;53.668;9.578;2023-05-19T11:55:14;22.40;99.90
14378;DHT22;7272;53.668;9.578;2023-05-19T11:58:16;23.00;99.90
14378;DHT22;7272;53.668;9.578;2023-05-19T12:01:17;23.10;99.90
14378;DHT22;7272;53.668;9.578;2023-05-19T12:04:19;22.70;99.90
14378;DHT22;7272;53.668;9.578;2023-05-19T12:07:22;22.80;99.90
14378;DHT22;7272;53.668;9.578;2023-05-19T12:10:25;23.10;99.90
14378;DHT22;7272;53.668;9.578;2023-05-19T12:13:27;23.30;99.90
14378;DHT22;7272;53.668;9.578;2023-05-19T12:16:32;23.60;99.90
14378;DHT22;7272;53.668;9.578;2023-05-19T12:19:34;23.80;99.90
14378;DHT22;7272;53.668;9.578;2023-05-19T12:22:35;23.80;99.90
14378;DHT22;7272;53.668;9.578;2023-05-19T12:25:37;23.90;99.90
14378;DHT22;7272;53.668;9.578;2023-05-19T12:28:39;23.70;99.90
14378;DHT22;7272;53.668;9.578;2023-05-19T12:31:41;23.60;99.90
14378;DHT22;7272;53.668;9.578;2023-05-19T12:34:42;23.40;99.90
14378;DHT22;7272;53.668;9.578;2023-05-19T12:37:43;23.30;99.90
14378;DHT22;7272;53.668;9.578;2023-05-19T12:40:44;23.50;99.90
14378;DHT22;7272;53.668;9.578;2023-05-19T12:43:47;23.70;99.90
14378;DHT22;7272;53.668;9.578;2023-05-19T12:46:51;23.70;99.90
14378;DHT22;7272;53.668;9.578;2023-05-19T12:49:56;23.70;99.90
14378;DHT22;7272;53.668;9.578;2023-05-19T12:53:01;23.70;99.90
14378;DHT22;7272;53.668;9.578;2023-05-19T12:56:10;23.70;99.90
14378;DHT22;7272;53.668;9.578;2023-05-19T12:59:21;23.90;99.90
14378;DHT22;7272;53.668;9.578;2023-05-19T13:02:23;24.20;99.90
14378;DHT22;7272;53.668;9.578;2023-05-19T13:05:24;24.20;99.90
14378;DHT22;7272;53.668;9.578;2023-05-19T13:08:26;23.90;99.90
14378;DHT22;7272;53.668;9.578;2023-05-19T13:11:27;23.60;99.90
14378;DHT22;7272;53.668;9.578;2023-05-19T13:14:29;23.60;99.90
14378;DHT22;7272;53.668;9.578;2023-05-19T13:17:30;23.70;99.90
14378;DHT22;7272;53.668;9.578;2023-05-19T13:20:31;23.80;99.90
14378;DHT22;7272;53.668;9.578;2023-05-19T13:23:32;23.30;99.90
14378;DHT22;7272;53.668;9.578;2023-05-19T13:26:34;22.60;99.90
14378;DHT22;7272;53.668;9.578;2023-05-19T13:29:36;22.20;99.90
14378;DHT22;7272;53.668;9.578;2023-05-19T13:32:37;21.90;99.90
14378;DHT22;7272;53.668;9.578;2023-05-19T13:35:38;21.70;99.90
14378;DHT22;7272;53.668;9.578;2023-05-19T13:38:40;22.20;99.90
14378;DHT22;7272;53.668;9.578;2023-05-19T13:41:41;22.60;99.90
14378;DHT22;7272;53.668;9.578;2023-05-19T13:44:44;22.90;99.90
14378;DHT22;7272;53.668;9.578;2023-05-19T13:47:45;22.80;99.90
14378;DHT22;7272;53.668;9.578;2023-05-19T13:50:46;22.70;99.90
14378;DHT22;7272;53.668;9.578;2023-05-19T13:53:47;22.20;99.90
14378;DHT22;7272;53.668;9.578;2023-05-19T13:56:48;22.00;99.90
14378;DHT22;7272;53.668;9.578;2023-05-19T13:59:50;22.20;99.90
14378;DHT22;7272;53.668;9.578;2023-05-19T14:02:51;22.30;99.90
14378;DHT22;7272;53.668;9.578;2023-05-19T14:05:52;22.40;99.90
14378;DHT22;7272;53.668;9.578;2023-05-19T14:08:54;22.40;99.90
14378;DHT22;7272;53.668;9.578;2023-05-19T14:11:55;22.60;99.90
14378;DHT22;7272;53.668;9.578;2023-05-19T14:14:59;22.80;99.90
14378;DHT22;7272;53.668;9.578;2023-05-19T14:18:01;22.90;99.90
14378;DHT22;7272;53.668;9.578;2023-05-19T14:21:02;22.70;99.90
14378;DHT22;7272;53.668;9.578;2023-05-19T14:24:03;22.60;99.90
14378;DHT22;7272;53.668;9.578;2023-05-19T14:27:05;22.60;99.90
14378;DHT22;7272;53.668;9.578;2023-05-19T14:30:08;22.50;99.90
14378;DHT22;7272;53.668;9.578;2023-05-19T14:33:09;22.30;99.90
14378;DHT22;7272;53.668;9.578;2023-05-19T14:36:11;22.30;99.90
14378;DHT22;7272;53.668;9.578;2023-05-19T14:39:12;22.40;99.90
14378;DHT22;7272;53.668;9.578;2023-05-19T14:42:13;22.50;99.90
14378;DHT22;7272;53.668;9.578;2023-05-19T14:45:15;22.60;99.90
14378;DHT22;7272;53.668;9.578;2023-05-19T14:48:17;22.50;99.90
14378;DHT22;7272;53.668;9.578;2023-05-19T14:51:18;22.40;99.90
14378;DHT22;7272;53.668;9.578;2023-05-19T14:54:19;22.30;99.90
14378;DHT22;7272;53.668;9.578;2023-05-19T14:57:20;22.10;99.90
14378;DHT22;7272;53.668;9.578;2023-05-19T15:00:22;21.80;99.90
14378;DHT22;7272;53.668;9.578;2023-05-19T15:03:25;21.40;99.90
14378;DHT22;7272;53.668;9.578;2023-05-19T15:06:26;21.40;99.90
14378;DHT22;7272;53.668;9.578;2023-05-19T15:09:28;21.40;99.90
14378;DHT22;7272;53.668;9.578;2023-05-19T15:12:29;21.20;99.90
14378;DHT22;7272;53.668;9.578;2023-05-19T15:15:31;21.00;99.90
14378;DHT22;7272;53.668;9.578;2023-05-19T15:18:32;21.10;99.90
14378;DHT22;7272;53.668;9.578;2023-05-19T15:21:33;21.30;99.90
14378;DHT22;7272;53.668;9.578;2023-05-19T15:24:34;21.40;99.90
14378;DHT22;7272;53.668;9.578;2023-05-19T15:27:36;21.20;99.90
14378;DHT22;7272;53.668;9.578;2023-05-19T15:30:38;21.10;99.90
14378;DHT22;7272;53.668;9.578;2023-05-19T15:33:39;20.90;99.90
14378;DHT22;7272;53.668;9.578;2023-05-19T15:36:40;20.70;99.90
14378;DHT22;7272;53.668;9.578;2023-05-19T15:39:41;20.70;99.90
14378;DHT22;7272;53.668;9.578;2023-05-19T15:42:43;20.70;99.90
14378;DHT22;7272;53.668;9.578;2023-05-19T15:45:45;20.70;99.90
14378;DHT22;7272;53.668;9.578;2023-05-19T15:48:46;20.60;99.90
14378;DHT22;7272;53.668;9.578;2023-05-19T15:51:47;20.60;99.90
14378;DHT22;7272;53.668;9.578;2023-05-19T15:54:49;20.50;99.90
14378;DHT22;7272;53.668;9.578;2023-05-19T15:57:50;20.40;99.90
14378;DHT22;7272;53.668;9.578;2023-05-19T16:00:52;20.30;99.90
14378;DHT22;7272;53.668;9.578;2023-05-19T16:03:53;20.30;99.90
14378;DHT22;7272;53.668;9.578;2023-05-19T16:06:54;20.10;99.90
14378;DHT22;7272;53.668;9.578;2023-05-19T16:09:55;20.00;99.90
14378;DHT22;7272;53.668;9.578;2023-05-19T16:12:57;20.00;99.90
14378;DHT22;7272;53.668;9.578;2023-05-19T16:15:58;20.10;99.90
14378;DHT22;7272;53.668;9.578;2023-05-19T16:19:00;20.20;99.90
14378;DHT22;7272;53.668;9.578;2023-05-19T16:22:01;20.30;99.90
14378;DHT22;7272;53.668;9.578;2023-05-19T16:25:02;20.20;99.90
14378;DHT22;7272;53.668;9.578;2023-05-19T16:28:04;20.00;99.90
14378;DHT22;7272;53.668;9.578;2023-05-19T16:31:06;20.00;99.90
14378;DHT22;7272;53.668;9.578;2023-05-19T16:34:07;19.90;99.90
14378;DHT22;7272;53.668;9.578;2023-05-19T16:37:08;19.90;99.90
14378;DHT22;7272;53.668;9.578;2023-05-19T16:40:10;19.80;99.90
14378;DHT22;7272;53.668;9.578;2023-05-19T16:43:11;19.70;99.90
14378;DHT22;7272;53.668;9.578;2023-05-19T16:46:13;19.60;99.90
14378;DHT22;7272;53.668;9.578;2023-05-19T16:49:14;19.50;99.90
14378;DHT22;7272;53.668;9.578;2023-05-19T16:52:15;19.40;99.90
14378;DHT22;7272;53.668;9.578;2023-05-19T16:55:16;19.20;99.90
14378;DHT22;7272;53.668;9.578;2023-05-19T16:58:19;19.10;99.90
14378;DHT22;7272;53.668;9.578;2023-05-19T17:01:21;19.10;99.90
14378;DHT22;7272;53.668;9.578;2023-05-19T17:04:23;19.10;99.90
14378;DHT22;7272;53.668;9.578;2023-05-19T17:07:24;19.00;99.90
14378;DHT22;7272;53.668;9.578;2023-05-19T17:10:27;18.80;99.90
14378;DHT22;7272;53.668;9.578;2023-05-19T17:13:28;18.70;99.90
14378;DHT22;7272;53.668;9.578;2023-05-19T17:16:33;18.70;99.90
14378;DHT22;7272;53.668;9.578;2023-05-19T17:19:35;18.70;99.90
14378;DHT22;7272;53.668;9.578;2023-05-19T17:22:36;18.80;99.90
14378;DHT22;7272;53.668;9.578;2023-05-19T17:25:37;18.70;99.90
14378;DHT22;7272;53.668;9.578;2023-05-19T17:28:38;18.50;99.90
14378;DHT22;7272;53.668;9.578;2023-05-19T17:31:40;18.40;99.90
14378;DHT22;7272;53.668;9.578;2023-05-19T17:34:41;18.30;99.90
14378;DHT22;7272;53.668;9.578;2023-05-19T17:37:42;18.20;99.90
14378;DHT22;7272;53.668;9.578;2023-05-19T17:40:44;18.00;99.90
14378;DHT22;7272;53.668;9.578;2023-05-19T17:43:45;18.10;99.90
14378;DHT22;7272;53.668;9.578;2023-05-19T17:46:47;18.00;99.90
14378;DHT22;7272;53.668;9.578;2023-05-19T17:49:48;17.90;99.90
14378;DHT22;7272;53.668;9.578;2023-05-19T17:52:52;17.80;99.90
14378;DHT22;7272;53.668;9.578;2023-05-19T17:55:58;17.80;99.90
14378;DHT22;7272;53.668;9.578;2023-05-19T17:58:59;17.80;99.90
14378;DHT22;7272;53.668;9.578;2023-05-19T18:02:02;17.80;99.90
14378;DHT22;7272;53.668;9.578;2023-05-19T18:05:04;17.90;99.90
14378;DHT22;7272;53.668;9.578;2023-05-19T18:08:06;17.90;99.90
14378;DHT22;7272;53.668;9.578;2023-05-19T18:11:09;17.80;99.90
14378;DHT22;7272;53.668;9.578;2023-05-19T18:14:12;17.70;99.90
14378;DHT22;7272;53.668;9.578;2023-05-19T18:17:14;17.60;99.90
14378;DHT22;7272;53.668;9.578;2023-05-19T18:20:15;17.50;99.90
14378;DHT22;7272;53.668;9.578;2023-05-19T18:23:17;17.40;99.90
14378;DHT22;7272;53.668;9.578;2023-05-19T18:26:18;17.40;99.90
14378;DHT22;7272;53.668;9.578;2023-05-19T18:29:19;17.40;99.90
14378;DHT22;7272;53.668;9.578;2023-05-19T18:32:21;17.30;99.90
14378;DHT22;7272;53.668;9.578;2023-05-19T18:35:22;17.30;99.90
14378;DHT22;7272;53.668;9.578;2023-05-19T18:38:23;17.30;99.90
14378;DHT22;7272;53.668;9.578;2023-05-19T18:41:25;17.30;99.90
14378;DHT22;7272;53.668;9.578;2023-05-19T18:44:26;17.30;99.90
14378;DHT22;7272;53.668;9.578;2023-05-19T18:47:28;17.20;99.90
14378;DHT22;7272;53.668;9.578;2023-05-19T18:50:29;17.20;99.90
14378;DHT22;7272;53.668;9.578;2023-05-19T18:53:32;17.10;99.90
14378;DHT22;7272;53.668;9.578;2023-05-19T18:56:33;17.00;99.90
14378;DHT22;7272;53.668;9.578;2023-05-19T18:59:35;17.00;99.90
14378;DHT22;7272;53.668;9.578;2023-05-19T19:02:36;16.90;99.90
14378;DHT22;7272;53.668;9.578;2023-05-19T19:05:38;16.90;99.90
14378;DHT22;7272;53.668;9.578;2023-05-19T19:08:39;16.80;99.90
14378;DHT22;7272;53.668;9.578;2023-05-19T19:11:41;16.80;99.90
14378;DHT22;7272;53.668;9.578;2023-05-19T19:14:42;16.60;99.90
14378;DHT22;7272;53.668;9.578;2023-05-19T19:17:44;16.50;99.90
14378;DHT22;7272;53.668;9.578;2023-05-19T19:20:45;16.30;99.90
14378;DHT22;7272;53.668;9.578;2023-05-19T19:23:46;16.30;99.90
14378;DHT22;7272;53.668;9.578;2023-05-19T19:26:47;16.30;99.90
14378;DHT22;7272;53.668;9.578;2023-05-19T19:29:48;16.20;99.90
14378;DHT22;7272;53.668;9.578;2023-05-19T19:32:51;16.10;99.90
14378;DHT22;7272;53.668;9.578;2023-05-19T19:35:52;16.00;99.90
14378;DHT22;7272;53.668;9.578;2023-05-19T19:38:53;15.90;99.90
14378;DHT22;7272;53.668;9.578;2023-05-19T19:41:54;15.80;99.90